Time;durP1;ratioP1;P1;durP2;ratioP2;P2;SDS_P1;SDS_P2;PMS_P1;PMS_P2;Temp;Humidity;BMP_temperature;BMP_pressure;BME280_temperature;BME280_humidity;BME280_pressure;Samples;Min_cycle;Max_cycle;Signal;HPM_P1;HPM_P2
2021/04/08 00:01:13;;;;;;;8.33;7.60;;;0.30;99.90;;;;;;5011306;28;20174;-69
2021/04/08 00:03:38;;;;;;;8.02;6.97;;;0.40;99.90;;;;;;5012770;28;20236;-68
2021/04/08 00:06:04;;;;;;;7.73;6.33;;;0.40;99.90;;;;;;5014493;28;20645;-69
2021/04/08 00:08:29;;;;;;;7.03;6.53;;;0.40;99.90;;;;;;5014660;28;20703;-69
2021/04/08 00:10:55;;;;;;;9.70;6.10;;;0.40;99.90;;;;;;5014568;28;20169;-69
2021/04/08 00:13:21;;;;;;;6.80;6.30;;;0.40;99.90;;;;;;5014508;28;20671;-69
2021/04/08 00:15:47;;;;;;;7.57;6.93;;;0.40;99.90;;;;;;5014443;28;20414;-69
2021/04/08 00:18:12;;;;;;;11.27;7.40;;;0.40;99.90;;;;;;5014194;28;20457;-69
2021/04/08 00:20:38;;;;;;;7.23;6.67;;;0.40;99.90;;;;;;5014306;28;20172;-69
2021/04/08 00:23:04;;;;;;;7.83;6.73;;;0.40;99.90;;;;;;5014481;28;20200;-69
2021/04/08 00:25:30;;;;;;;9.00;8.10;;;0.40;99.90;;;;;;5014149;28;20546;-69
2021/04/08 00:27:55;;;;;;;15.82;7.40;;;0.50;99.90;;;;;;5014196;28;20173;-69
2021/04/08 00:30:21;;;;;;;9.90;7.40;;;0.40;99.90;;;;;;5014127;28;20734;-69
2021/04/08 00:32:47;;;;;;;6.55;6.05;;;0.50;99.90;;;;;;5014244;28;20239;-69
2021/04/08 00:35:12;;;;;;;8.63;7.10;;;0.40;99.90;;;;;;5014361;28;20205;-69
2021/04/08 00:37:38;;;;;;;8.93;8.03;;;0.50;99.90;;;;;;5014077;28;20178;-69
2021/04/08 00:40:09;;;;;;;7.33;6.60;;;0.50;99.90;;;;;;5013554;28;20196;-69
2021/04/08 00:42:35;;;;;;;8.10;7.40;;;0.50;99.90;;;;;;5014028;28;20642;-69
2021/04/08 00:45:00;;;;;;;8.03;7.33;;;0.50;99.90;;;;;;5014140;28;20181;-69
2021/04/08 00:47:26;;;;;;;8.57;7.20;;;0.50;99.90;;;;;;5013972;28;20169;-69
2021/04/08 00:49:51;;;;;;;9.03;7.10;;;0.50;99.90;;;;;;5013375;28;20189;-68
2021/04/08 00:52:17;;;;;;;7.50;6.87;;;0.50;99.90;;;;;;5013787;28;20641;-69
2021/04/08 00:54:43;;;;;;;8.30;7.50;;;0.50;99.90;;;;;;5013786;28;20633;-68
2021/04/08 00:57:09;;;;;;;10.57;7.33;;;0.40;99.90;;;;;;5013886;28;20169;-69
2021/04/08 00:59:35;;;;;;;7.95;7.13;;;0.40;99.90;;;;;;5013292;28;20208;-69
2021/04/08 01:02:01;;;;;;;7.50;6.87;;;0.40;99.90;;;;;;5013589;28;20352;-69
2021/04/08 01:04:26;;;;;;;7.43;6.80;;;0.50;99.90;;;;;;5013749;28;20173;-69
2021/04/08 01:06:53;;;;;;;8.30;7.50;;;0.40;99.90;;;;;;5013365;28;20165;-69
2021/04/08 01:09:18;;;;;;;8.05;7.32;;;0.40;99.90;;;;;;5012974;28;20243;-69
2021/04/08 01:11:44;;;;;;;7.03;6.47;;;0.50;99.90;;;;;;5013293;28;20177;-68
2021/04/08 01:14:10;;;;;;;9.67;8.03;;;0.50;99.90;;;;;;5013082;28;20314;-69
2021/04/08 01:16:53;;;;;;;11.90;7.50;;;0.30;99.90;;;;;;5012868;28;20255;-69
2021/04/08 01:19:53;;;;;;;8.40;7.07;;;0.30;99.90;;;;;;5012973;28;20247;-69
2021/04/08 01:22:46;;;;;;;8.10;7.40;;;0.30;99.90;;;;;;5013338;28;20622;-69
2021/04/08 01:25:46;;;;;;;8.95;7.85;;;0.30;99.90;;;;;;5013372;28;20180;-69
2021/04/08 01:28:36;;;;;;;8.05;7.28;;;0.20;99.90;;;;;;5012886;28;20176;-68
2021/04/08 01:31:05;;;;;;;7.45;6.93;;;0.20;99.90;;;;;;5010239;28;20288;-69
2021/04/08 01:33:58;;;;;;;7.90;7.35;;;0.30;99.90;;;;;;5012974;28;20563;-69
2021/04/08 01:36:29;;;;;;;7.20;6.60;;;0.30;99.90;;;;;;5011529;28;20181;-69
2021/04/08 01:38:59;;;;;;;6.75;6.15;;;0.30;99.90;;;;;;5012645;28;20219;-68
2021/04/08 01:41:25;;;;;;;9.43;7.32;;;0.30;99.90;;;;;;5012927;28;20664;-68
2021/04/08 01:43:56;;;;;;;7.72;7.03;;;0.30;99.90;;;;;;5012879;28;20239;-69
2021/04/08 01:46:25;;;;;;;7.20;6.80;;;0.30;99.90;;;;;;5013006;28;20575;-69
2021/04/08 01:48:53;;;;;;;8.70;8.00;;;0.30;99.90;;;;;;5012441;28;20201;-69
2021/04/08 01:51:20;;;;;;;8.43;7.63;;;0.30;99.90;;;;;;5012201;28;20260;-69
2021/04/08 01:53:52;;;;;;;11.27;7.93;;;0.30;99.90;;;;;;5012877;28;20192;-69
2021/04/08 01:56:21;;;;;;;8.27;7.50;;;0.30;99.90;;;;;;5012369;28;20260;-68
2021/04/08 01:58:48;;;;;;;8.05;7.30;;;0.30;99.90;;;;;;5012151;28;20184;-69
2021/04/08 02:01:17;;;;;;;9.40;8.50;;;0.30;99.90;;;;;;5012656;28;20168;-69
2021/04/08 02:03:43;;;;;;;9.35;8.52;;;0.10;99.90;;;;;;5012822;28;20169;-69
2021/04/08 02:06:10;;;;;;;9.93;9.15;;;0.10;99.90;;;;;;5012792;28;20513;-69
2021/04/08 02:08:39;;;;;;;9.77;8.55;;;0.10;99.90;;;;;;5012354;28;20185;-69
2021/04/08 02:11:05;;;;;;;9.43;8.38;;;0.10;99.90;;;;;;5012717;28;20547;-69
2021/04/08 02:13:31;;;;;;;10.27;8.60;;;0.10;99.90;;;;;;5012564;28;20193;-69
2021/04/08 02:15:59;;;;;;;9.48;8.02;;;0.20;99.90;;;;;;5012476;28;20166;-69
2021/04/08 02:18:25;;;;;;;10.73;9.80;;;0.20;99.90;;;;;;5012403;28;20590;-68
2021/04/08 02:20:52;;;;;;;9.10;8.20;;;0.20;99.90;;;;;;5012497;28;20200;-68
2021/04/08 02:23:24;;;;;;;9.95;8.95;;;0.10;99.90;;;;;;5012549;28;20814;-69
2021/04/08 02:25:51;;;;;;;10.23;9.32;;;0.10;99.90;;;;;;5012114;28;20174;-69
2021/04/08 02:28:18;;;;;;;11.10;10.00;;;0.10;99.90;;;;;;5012475;28;20173;-69
2021/04/08 02:30:48;;;;;;;11.85;9.45;;;0.10;99.90;;;;;;5012425;28;20189;-69
2021/04/08 02:33:21;;;;;;;10.35;9.30;;;0.10;99.90;;;;;;5012333;28;20207;-69
2021/04/08 02:35:47;;;;;;;13.98;11.60;;;0.20;99.90;;;;;;5012289;28;20259;-69
2021/04/08 02:38:13;;;;;;;11.25;9.57;;;0.20;99.90;;;;;;5011858;28;20201;-69
2021/04/08 02:40:38;;;;;;;11.13;9.20;;;0.20;99.90;;;;;;5012187;28;20200;-69
2021/04/08 02:43:04;;;;;;;10.07;7.90;;;0.20;99.90;;;;;;5012185;28;20590;-69
2021/04/08 02:45:29;;;;;;;7.97;7.37;;;0.20;99.90;;;;;;5012233;28;20537;-69
2021/04/08 02:47:55;;;;;;;13.33;9.27;;;0.20;99.90;;;;;;5012102;28;20181;-69
2021/04/08 02:50:21;;;;;;;13.10;8.63;;;0.20;99.90;;;;;;5011776;28;20204;-69
2021/04/08 02:53:01;;;;;;;9.07;8.17;;;0.20;99.90;;;;;;5012054;28;20247;-69
2021/04/08 02:55:35;;;;;;;8.77;7.93;;;0.20;99.90;;;;;;5011980;28;20560;-69
2021/04/08 02:58:03;;;;;;;11.18;9.27;;;0.20;99.90;;;;;;5012034;28;20227;-69
2021/04/08 03:00:36;;;;;;;9.25;8.05;;;0.30;99.90;;;;;;5011905;28;20588;-69
2021/04/08 03:03:06;;;;;;;9.30;8.50;;;0.20;99.90;;;;;;5012110;28;20176;-69
2021/04/08 03:05:37;;;;;;;9.95;7.85;;;0.20;99.90;;;;;;5011969;28;20173;-69
2021/04/08 03:08:13;;;;;;;8.88;8.07;;;0.30;99.90;;;;;;5011812;28;20259;-69
2021/04/08 03:10:41;;;;;;;12.82;7.93;;;0.20;99.90;;;;;;5011969;28;20204;-69
2021/04/08 03:13:10;;;;;;;10.45;8.10;;;0.20;99.90;;;;;;5011794;28;20541;-69
2021/04/08 03:15:38;;;;;;;7.10;6.55;;;0.20;99.90;;;;;;5011939;28;20165;-69
2021/04/08 03:18:18;;;;;;;10.50;7.68;;;0.20;99.90;;;;;;5011722;28;20196;-69
2021/04/08 03:20:50;;;;;;;8.00;7.18;;;0.10;99.90;;;;;;5011889;28;20234;-69
2021/04/08 03:23:16;;;;;;;7.70;7.10;;;0.20;99.90;;;;;;5011851;28;20169;-69
2021/04/08 03:25:43;;;;;;;8.43;7.20;;;0.20;99.90;;;;;;5011804;28;20165;-69
2021/04/08 03:28:12;;;;;;;8.40;7.60;;;0.20;99.90;;;;;;5011393;28;20176;-69
2021/04/08 03:30:40;;;;;;;7.68;6.88;;;0.20;99.90;;;;;;5011701;28;20166;-69
2021/04/08 03:33:07;;;;;;;7.60;7.00;;;0.30;99.90;;;;;;5011556;28;20547;-69
2021/04/08 03:35:34;;;;;;;13.07;8.75;;;0.30;99.90;;;;;;5011730;28;20185;-69
2021/04/08 03:38:00;;;;;;;8.13;7.43;;;0.20;99.90;;;;;;5012005;28;20169;-69
2021/04/08 03:40:26;;;;;;;7.22;6.63;;;0.30;99.90;;;;;;5015177;28;20185;-68
2021/04/08 03:42:52;;;;;;;7.20;6.63;;;0.20;99.90;;;;;;5015326;28;20181;-69
2021/04/08 03:45:18;;;;;;;9.38;8.38;;;0.30;99.90;;;;;;5015305;28;20404;-69
2021/04/08 03:47:45;;;;;;;7.15;6.55;;;0.20;99.90;;;;;;5015225;28;20176;-69
2021/04/08 03:50:14;;;;;;;9.25;8.00;;;0.20;99.90;;;;;;5014915;28;20259;-69
2021/04/08 03:52:42;;;;;;;8.05;7.05;;;0.20;99.90;;;;;;5015185;28;20165;-69
2021/04/08 03:55:08;;;;;;;7.30;6.60;;;0.20;99.90;;;;;;5015239;28;20173;-69
2021/04/08 03:57:38;;;;;;;7.97;7.38;;;0.20;99.90;;;;;;5015238;28;20630;-69
2021/04/08 04:00:06;;;;;;;7.78;6.95;;;0.20;99.90;;;;;;5014608;28;20543;-69
2021/04/08 04:02:32;;;;;;;6.75;6.25;;;0.30;99.90;;;;;;5015001;28;20643;-69
2021/04/08 04:04:59;;;;;;;8.55;7.65;;;0.30;99.90;;;;;;5015050;28;20181;-69
2021/04/08 04:07:26;;;;;;;7.95;6.97;;;0.30;99.90;;;;;;5015080;28;20288;-69
2021/04/08 04:09:51;;;;;;;9.07;8.27;;;0.30;99.90;;;;;;5014514;28;20317;-69
2021/04/08 04:12:17;;;;;;;7.63;7.03;;;0.30;99.90;;;;;;5014877;28;20224;-69
2021/04/08 04:14:45;;;;;;;7.67;6.97;;;0.30;99.90;;;;;;5014767;28;20196;-69
2021/04/08 04:17:27;;;;;;;7.93;7.28;;;0.20;99.90;;;;;;5014809;28;20494;-69
2021/04/08 04:19:54;;;;;;;6.40;5.88;;;0.20;99.90;;;;;;5014292;28;20268;-69
2021/04/08 04:22:20;;;;;;;7.07;6.35;;;0.20;99.90;;;;;;5014704;28;20255;-69
2021/04/08 04:24:46;;;;;;;9.18;8.27;;;0.20;99.90;;;;;;5014651;28;20178;-69
2021/04/08 04:27:12;;;;;;;8.00;7.28;;;0.20;99.90;;;;;;5014511;28;20178;-68
2021/04/08 04:29:38;;;;;;;7.03;6.43;;;0.10;99.90;;;;;;5014123;28;20200;-69
2021/04/08 04:32:04;;;;;;;8.07;7.30;;;0.10;99.90;;;;;;5014463;28;20418;-69
2021/04/08 04:34:29;;;;;;;7.60;6.90;;;0.10;99.90;;;;;;5014404;28;20669;-69
2021/04/08 04:36:55;;;;;;;7.10;6.50;;;0.10;99.90;;;;;;5014453;28;20440;-69
2021/04/08 04:39:21;;;;;;;7.67;6.30;;;0.20;99.90;;;;;;5013944;28;20428;-69
2021/04/08 04:41:47;;;;;;;8.27;7.43;;;0.10;99.90;;;;;;5014153;28;20240;-69
2021/04/08 04:44:12;;;;;;;7.27;6.50;;;0.10;99.90;;;;;;5014332;28;20173;-69
2021/04/08 04:46:38;;;;;;;7.60;6.30;;;0.10;99.90;;;;;;5014187;28;20415;-69
2021/04/08 04:49:04;;;;;;;11.23;6.70;;;0.00;99.90;;;;;;5013581;28;20192;-69
2021/04/08 04:51:29;;;;;;;6.60;6.00;;;-0.10;99.90;;;;;;5014207;28;20173;-69
2021/04/08 04:53:55;;;;;;;8.30;7.50;;;-0.10;99.90;;;;;;5014090;28;20204;-69
2021/04/08 04:56:20;;;;;;;7.67;6.97;;;-0.20;99.90;;;;;;5013968;28;20185;-69
2021/04/08 04:58:46;;;;;;;7.37;6.77;;;-0.10;99.90;;;;;;5013597;28;20221;-69
2021/04/08 05:01:11;;;;;;;8.80;6.27;;;-0.10;99.90;;;;;;5014138;28;20170;-69
2021/04/08 05:03:37;;;;;;;7.80;6.93;;;-0.10;99.90;;;;;;5013880;28;20170;-69
2021/04/08 05:06:03;;;;;;;9.47;7.50;;;0.00;99.90;;;;;;5013906;28;20174;-69
2021/04/08 05:08:28;;;;;;;8.00;7.20;;;0.00;99.90;;;;;;5013431;28;20967;-69
2021/04/08 05:10:54;;;;;;;7.30;6.63;;;-0.10;99.90;;;;;;5013719;28;20269;-69
2021/04/08 05:13:20;;;;;;;8.40;7.00;;;0.00;99.90;;;;;;5013932;28;20260;-69
2021/04/08 05:15:45;;;;;;;9.07;7.20;;;-0.10;99.90;;;;;;5013697;28;20169;-69
2021/04/08 05:18:11;;;;;;;7.17;6.20;;;0.00;99.90;;;;;;5013290;28;20174;-69
2021/04/08 05:20:36;;;;;;;7.70;6.53;;;0.00;99.90;;;;;;5013566;28;20180;-69
2021/04/08 05:23:02;;;;;;;8.57;7.67;;;0.00;99.90;;;;;;5013479;28;20256;-69
2021/04/08 05:25:27;;;;;;;7.23;6.53;;;0.00;99.90;;;;;;5013406;28;20178;-69
2021/04/08 05:27:53;;;;;;;15.03;7.83;;;0.00;99.90;;;;;;5013371;28;20184;-69
2021/04/08 05:30:19;;;;;;;7.17;6.47;;;0.00;99.90;;;;;;5013079;28;20693;-69
2021/04/08 05:32:44;;;;;;;7.93;6.90;;;0.00;99.90;;;;;;5013289;28;20177;-69
2021/04/08 05:35:11;;;;;;;6.87;6.10;;;-0.10;99.90;;;;;;5013334;28;20323;-69
2021/04/08 05:37:36;;;;;;;7.80;6.43;;;0.00;99.90;;;;;;5013382;28;20602;-69
2021/04/08 05:40:02;;;;;;;7.07;6.13;;;-0.10;99.90;;;;;;5012706;28;20292;-69
2021/04/08 05:42:28;;;;;;;7.95;6.40;;;0.00;99.90;;;;;;5013060;28;20200;-69
2021/04/08 05:44:53;;;;;;;6.43;5.67;;;0.00;99.90;;;;;;5013159;28;20188;-68
2021/04/08 05:47:19;;;;;;;6.37;5.87;;;0.30;99.90;;;;;;5013160;28;20169;-69
2021/04/08 05:49:44;;;;;;;7.80;7.13;;;0.20;99.90;;;;;;5012654;28;20205;-69
2021/04/08 05:52:10;;;;;;;7.63;6.90;;;0.20;99.30;;;;;;5013108;28;20676;-69
2021/04/08 05:54:35;;;;;;;8.07;6.40;;;0.20;99.40;;;;;;5012944;28;20192;-69
2021/04/08 05:57:01;;;;;;;11.40;6.20;;;0.20;99.50;;;;;;5013167;28;20172;-69
2021/04/08 05:59:27;;;;;;;11.10;6.57;;;0.20;99.60;;;;;;5011846;28;20577;-69
2021/04/08 06:01:52;;;;;;;7.27;6.57;;;0.30;99.10;;;;;;5010835;28;20637;-69
2021/04/08 06:04:18;;;;;;;7.63;6.70;;;0.40;98.90;;;;;;5012891;28;20181;-66
2021/04/08 06:06:43;;;;;;;7.27;5.20;;;0.40;98.90;;;;;;5012766;28;20220;-66
2021/04/08 06:09:09;;;;;;;6.23;5.60;;;0.40;99.00;;;;;;5012247;28;20239;-65
2021/04/08 06:11:35;;;;;;;10.03;6.80;;;0.40;98.70;;;;;;5012934;28;20177;-66
2021/04/08 06:14:00;;;;;;;10.50;7.17;;;0.50;99.00;;;;;;5012718;28;20307;-65
2021/04/08 06:16:26;;;;;;;8.00;5.93;;;0.60;98.00;;;;;;5012902;28;20166;-65
2021/04/08 06:18:51;;;;;;;6.40;5.83;;;0.60;98.10;;;;;;5012143;28;20542;-65
2021/04/08 06:21:17;;;;;;;6.50;6.00;;;0.60;97.90;;;;;;5012488;28;20161;-65
2021/04/08 06:23:43;;;;;;;8.43;6.90;;;0.70;97.40;;;;;;5012408;28;20268;-66
2021/04/08 06:26:08;;;;;;;8.30;6.07;;;0.70;97.60;;;;;;5012463;28;20177;-64
2021/04/08 06:28:34;;;;;;;8.80;6.80;;;0.70;97.80;;;;;;5012158;28;20192;-65
2021/04/08 06:30:59;;;;;;;7.07;5.97;;;0.70;97.40;;;;;;5012352;28;20598;-65
2021/04/08 06:33:25;;;;;;;6.13;4.90;;;0.80;97.70;;;;;;5012315;28;20204;-65
2021/04/08 06:35:50;;;;;;;7.97;6.23;;;0.90;97.50;;;;;;5012353;28;20176;-65
2021/04/08 06:38:16;;;;;;;5.70;5.17;;;0.80;99.90;;;;;;5011746;28;20209;-64
2021/04/08 06:40:42;;;;;;;9.07;5.80;;;0.90;97.10;;;;;;5012158;28;20181;-65
2021/04/08 06:43:10;;;;;;;5.43;4.90;;;1.00;97.10;;;;;;5012273;28;20240;-65
2021/04/08 06:45:38;;;;;;;6.05;4.57;;;1.10;97.10;;;;;;5012481;28;20220;-68
2021/04/08 06:48:08;;;;;;;9.05;4.95;;;1.10;96.70;;;;;;5012004;28;20167;-68
2021/04/08 06:50:40;;;;;;;12.20;6.10;;;1.30;96.10;;;;;;5012137;28;20165;-67
2021/04/08 06:53:07;;;;;;;10.88;5.63;;;1.20;95.70;;;;;;5012552;28;20188;-69
2021/04/08 06:55:33;;;;;;;8.73;7.32;;;1.30;95.50;;;;;;5012053;28;20540;-68
2021/04/08 06:58:03;;;;;;;7.10;4.97;;;1.30;96.00;;;;;;5011828;28;20177;-67
2021/04/08 07:00:29;;;;;;;6.05;5.45;;;1.40;96.10;;;;;;5011676;28;20185;-70
2021/04/08 07:02:57;;;;;;;7.38;5.68;;;1.40;95.80;;;;;;5012037;28;20173;-68
2021/04/08 07:05:23;;;;;;;9.07;5.88;;;1.40;95.50;;;;;;5011919;28;20161;-65
2021/04/08 07:07:49;;;;;;;6.20;5.60;;;1.50;95.40;;;;;;5012062;28;20515;-65
2021/04/08 07:10:14;;;;;;;6.10;4.57;;;1.50;95.80;;;;;;5011933;28;20197;-66
2021/04/08 07:12:40;;;;;;;6.50;5.20;;;1.60;95.70;;;;;;5013480;28;20176;-65
2021/04/08 07:15:07;;;;;;;6.37;5.87;;;1.60;95.70;;;;;;5015966;28;20165;-64
2021/04/08 07:17:33;;;;;;;5.65;5.25;;;1.70;95.70;;;;;;5015936;28;20436;-65
2021/04/08 07:19:59;;;;;;;5.85;5.25;;;1.90;95.60;;;;;;5015383;28;20666;-65
2021/04/08 07:22:26;;;;;;;6.10;4.70;;;2.10;95.30;;;;;;5016040;28;20182;-64
2021/04/08 07:24:52;;;;;;;7.50;5.60;;;2.10;94.90;;;;;;5015928;28;20175;-64
2021/04/08 07:27:23;;;;;;;5.50;4.93;;;2.00;94.90;;;;;;5015698;28;20166;-65
2021/04/08 07:29:54;;;;;;;6.00;5.45;;;2.20;94.70;;;;;;5015228;28;20185;-64
2021/04/08 07:32:21;;;;;;;6.13;5.63;;;2.30;93.90;;;;;;5015610;28;20182;-65
2021/04/08 07:34:53;;;;;;;6.97;5.40;;;2.40;94.50;;;;;;5015458;28;20218;-65
2021/04/08 07:37:24;;;;;;;4.63;4.22;;;2.60;94.40;;;;;;5015845;28;20216;-65
2021/04/08 07:39:49;;;;;;;7.53;4.45;;;2.50;92.90;;;;;;5015051;28;20194;-68
2021/04/08 07:42:17;;;;;;;5.40;4.70;;;2.60;93.70;;;;;;5015918;28;20179;-67
2021/04/08 07:44:47;;;;;;;6.68;5.30;;;2.70;93.30;;;;;;5016113;28;20171;-65
2021/04/08 07:47:16;;;;;;;4.90;4.55;;;2.80;93.00;;;;;;5015306;28;20174;-66
2021/04/08 07:49:41;;;;;;;5.47;5.00;;;2.90;92.80;;;;;;5014883;28;20207;-66
2021/04/08 07:52:25;;;;;;;4.80;4.50;;;3.00;92.00;;;;;;5015588;28;20170;-67
2021/04/08 07:55:09;;;;;;;6.10;5.10;;;3.00;91.80;;;;;;5016574;28;20237;-67
2021/04/08 07:57:53;;;;;;;5.07;4.70;;;2.90;92.00;;;;;;5015205;28;20219;-68
2021/04/08 08:00:22;;;;;;;7.25;5.20;;;3.10;91.40;;;;;;5014900;28;20556;-67
2021/04/08 08:02:48;;;;;;;4.70;4.40;;;3.20;91.70;;;;;;5015118;28;20172;-65
2021/04/08 08:05:18;;;;;;;4.60;4.20;;;3.40;92.20;;;;;;5015142;28;20550;-65
2021/04/08 08:07:46;;;;;;;5.93;5.30;;;3.30;91.90;;;;;;5015090;28;20468;-66
2021/04/08 08:10:30;;;;;;;5.73;5.10;;;3.40;91.40;;;;;;5014595;28;20911;-66
2021/04/08 08:12:55;;;;;;;5.73;5.27;;;3.50;92.30;;;;;;5014746;28;21013;-66
2021/04/08 08:15:25;;;;;;;5.73;4.83;;;3.70;91.70;;;;;;5014871;28;20426;-66
2021/04/08 08:17:52;;;;;;;5.93;4.15;;;3.80;91.00;;;;;;5014759;28;20226;-66
2021/04/08 08:20:19;;;;;;;5.40;4.83;;;3.80;90.80;;;;;;5014254;28;20191;-66
2021/04/08 08:22:45;;;;;;;5.80;5.10;;;3.90;91.30;;;;;;5014748;28;20927;-65
2021/04/08 08:25:12;;;;;;;4.27;3.97;;;4.00;89.50;;;;;;5014144;28;20396;-66
2021/04/08 08:27:50;;;;;;;5.53;5.00;;;4.10;89.80;;;;;;5015306;28;20407;-65
2021/04/08 08:30:20;;;;;;;6.53;4.70;;;4.30;89.10;;;;;;5014268;28;20424;-66
2021/04/08 08:33:01;;;;;;;9.17;4.47;;;4.60;90.60;;;;;;5014858;28;20396;-65
2021/04/08 08:35:27;;;;;;;5.50;5.00;;;4.60;89.90;;;;;;5014497;28;20474;-65
2021/04/08 08:37:55;;;;;;;4.93;4.40;;;4.90;90.50;;;;;;5014352;28;20924;-65
2021/04/08 08:40:22;;;;;;;4.43;4.03;;;5.10;90.00;;;;;;5014026;28;20779;-65
2021/04/08 08:42:50;;;;;;;5.00;4.63;;;5.20;87.50;;;;;;5014238;28;20450;-65
2021/04/08 08:45:17;;;;;;;5.23;4.73;;;5.20;85.60;;;;;;5014236;28;20451;-65
2021/04/08 08:47:43;;;;;;;6.23;4.30;;;5.10;81.50;;;;;;5014211;28;20409;-66
2021/04/08 08:50:13;;;;;;;3.93;3.57;;;5.20;82.10;;;;;;5013870;28;20420;-65
2021/04/08 08:52:41;;;;;;;4.50;4.20;;;5.20;77.50;;;;;;5014065;28;20406;-65
2021/04/08 08:55:13;;;;;;;5.43;4.47;;;5.00;78.70;;;;;;5014435;28;20480;-65
2021/04/08 08:57:40;;;;;;;4.27;3.97;;;5.00;78.00;;;;;;5014023;28;20428;-66
2021/04/08 09:00:08;;;;;;;4.90;4.50;;;5.30;83.00;;;;;;5013492;28;20443;-63
2021/04/08 09:02:38;;;;;;;5.50;4.40;;;5.40;76.90;;;;;;5013980;28;20408;-62
2021/04/08 09:05:10;;;;;;;5.03;4.50;;;5.40;78.40;;;;;;5013874;28;20491;-64
2021/04/08 09:07:36;;;;;;;4.20;3.90;;;5.30;73.60;;;;;;5013978;28;20400;-63
2021/04/08 09:10:04;;;;;;;4.70;4.23;;;5.50;73.80;;;;;;5013308;28;20425;-66
2021/04/08 09:12:31;;;;;;;4.90;4.60;;;5.80;73.80;;;;;;5014029;28;20467;-67
2021/04/08 09:14:56;;;;;;;4.63;4.23;;;6.00;72.10;;;;;;5013679;28;20956;-65
2021/04/08 09:17:45;;;;;;;4.97;4.67;;;5.90;70.00;;;;;;5013830;28;20409;-66
2021/04/08 09:20:11;;;;;;;4.87;4.47;;;6.00;73.70;;;;;;5013479;28;20189;-66
2021/04/08 09:22:57;;;;;;;6.63;4.53;;;6.00;69.10;;;;;;5013573;28;20404;-68
2021/04/08 09:25:29;;;;;;;4.97;4.57;;;5.90;69.20;;;;;;5013859;28;20392;-67
2021/04/08 09:27:57;;;;;;;5.83;3.90;;;5.60;66.60;;;;;;5013374;28;20416;-67
2021/04/08 09:30:51;;;;;;;5.30;4.90;;;5.70;70.30;;;;;;5013117;28;20778;-67
2021/04/08 09:33:17;;;;;;;6.87;4.37;;;5.90;69.50;;;;;;5013235;28;20534;-69
2021/04/08 09:35:44;;;;;;;4.70;3.90;;;5.90;68.20;;;;;;5012409;28;20563;-69
2021/04/08 09:38:09;;;;;;;5.77;5.37;;;6.10;73.90;;;;;;5012954;28;20475;-69
2021/04/08 09:40:44;;;;;;;4.00;3.80;;;6.30;70.00;;;;;;5013051;28;20551;-67
2021/04/08 09:43:11;;;;;;;5.83;5.30;;;6.50;69.70;;;;;;5013281;28;20252;-68
2021/04/08 09:45:58;;;;;;;4.87;4.50;;;6.60;66.70;;;;;;5013122;28;20415;-68
2021/04/08 09:48:26;;;;;;;6.80;4.83;;;6.80;72.20;;;;;;5012919;28;20608;-67
2021/04/08 09:50:59;;;;;;;4.93;4.53;;;6.80;62.20;;;;;;5013172;28;20400;-67
2021/04/08 09:53:49;;;;;;;4.80;4.50;;;7.20;59.80;;;;;;5013026;28;20444;-67
2021/04/08 09:56:15;;;;;;;4.20;3.90;;;7.60;62.00;;;;;;5012709;28;20483;-68
2021/04/08 09:58:41;;;;;;;4.73;4.23;;;7.10;59.00;;;;;;5012635;28;20562;-66
2021/04/08 10:01:08;;;;;;;4.80;4.40;;;7.40;64.70;;;;;;5013042;28;20165;-65
2021/04/08 10:03:39;;;;;;;4.97;4.40;;;7.30;61.20;;;;;;5012939;28;20177;-65
2021/04/08 10:06:22;;;;;;;5.37;4.97;;;7.40;64.00;;;;;;5013159;28;20383;-65
2021/04/08 10:08:51;;;;;;;5.10;4.80;;;7.50;63.20;;;;;;5012157;28;20506;-67
2021/04/08 10:11:31;;;;;;;4.93;4.50;;;8.00;64.30;;;;;;5013014;28;20770;-67
2021/04/08 10:13:57;;;;;;;5.50;5.00;;;8.90;63.00;;;;;;5012952;28;21022;-67
2021/04/08 10:16:23;;;;;;;4.80;4.50;;;9.70;62.90;;;;;;5012650;28;20539;-67
2021/04/08 10:18:59;;;;;;;4.87;4.47;;;10.10;59.40;;;;;;5012295;28;20468;-67
2021/04/08 10:21:24;;;;;;;5.93;4.20;;;10.60;55.40;;;;;;5012698;28;20167;-66
2021/04/08 10:23:52;;;;;;;4.63;4.33;;;10.70;58.10;;;;;;5012638;28;20423;-66
2021/04/08 10:26:28;;;;;;;4.23;3.97;;;10.40;56.70;;;;;;5012703;28;20184;-67
2021/04/08 10:28:57;;;;;;;5.37;4.97;;;10.80;57.90;;;;;;5012077;28;20439;-67
2021/04/08 10:31:37;;;;;;;5.17;4.67;;;11.00;54.50;;;;;;5012370;28;20435;-68
2021/04/08 10:34:08;;;;;;;3.93;3.60;;;11.40;56.10;;;;;;5012343;28;20586;-67
2021/04/08 10:36:35;;;;;;;5.20;4.70;;;11.40;53.10;;;;;;5012381;28;20403;-67
2021/04/08 10:39:11;;;;;;;5.53;4.07;;;10.70;51.40;;;;;;5011930;28;20482;-65
2021/04/08 10:41:38;;;;;;;6.53;4.03;;;11.20;57.40;;;;;;5012277;28;20506;-67
2021/04/08 10:44:28;;;;;;;5.23;4.50;;;10.90;52.60;;;;;;5012102;28;20411;-67
2021/04/08 10:46:56;;;;;;;3.87;3.53;;;10.00;53.10;;;;;;5012172;28;20823;-67
2021/04/08 10:49:28;;;;;;;5.23;4.83;;;10.00;54.20;;;;;;5012883;28;20973;-65
2021/04/08 10:51:55;;;;;;;4.90;4.60;;;9.60;56.00;;;;;;5014738;28;20413;-64
2021/04/08 10:54:30;;;;;;;5.03;4.47;;;9.50;53.50;;;;;;5012513;28;20850;-64
2021/04/08 10:56:55;;;;;;;5.30;4.53;;;9.80;55.20;;;;;;5012535;28;20489;-65
2021/04/08 10:59:23;;;;;;;6.20;5.60;;;9.80;53.90;;;;;;5012175;28;20462;-65
2021/04/08 11:01:50;;;;;;;6.87;4.80;;;9.70;54.70;;;;;;5012087;28;20640;-64
2021/04/08 11:04:20;;;;;;;4.83;4.40;;;10.10;53.00;;;;;;5012172;28;20411;-64
2021/04/08 11:06:51;;;;;;;5.60;5.20;;;10.40;53.80;;;;;;5012065;28;20418;-64
2021/04/08 11:09:27;;;;;;;5.47;5.10;;;10.20;53.80;;;;;;5011519;28;20462;-64
2021/04/08 11:11:54;;;;;;;5.50;4.93;;;10.00;52.40;;;;;;5012128;28;20415;-64
2021/04/08 11:14:24;;;;;;;5.20;4.90;;;10.30;58.00;;;;;;5012235;28;20451;-64
2021/04/08 11:16:52;;;;;;;8.13;5.87;;;10.30;54.30;;;;;;5012512;28;20454;-64
2021/04/08 11:19:18;;;;;;;5.67;5.17;;;10.80;56.50;;;;;;5011873;28;20486;-64
2021/04/08 11:21:44;;;;;;;8.10;7.50;;;11.40;55.50;;;;;;5011974;28;20754;-64
2021/04/08 11:24:11;;;;;;;5.00;4.70;;;12.00;56.20;;;;;;5012093;28;20412;-64
2021/04/08 11:26:51;;;;;;;8.47;5.70;;;12.50;54.40;;;;;;5011852;28;20920;-64
2021/04/08 11:29:24;;;;;;;5.50;5.00;;;11.90;52.80;;;;;;5011353;28;20436;-65
2021/04/08 11:32:09;;;;;;;5.13;4.83;;;11.40;50.00;;;;;;5011867;28;20404;-64
2021/04/08 11:34:46;;;;;;;6.50;6.00;;;10.70;51.20;;;;;;5011728;28;20522;-64
2021/04/08 11:37:14;;;;;;;6.30;5.80;;;10.60;53.30;;;;;;5011205;28;20431;-64
2021/04/08 11:39:40;;;;;;;6.77;6.23;;;10.00;53.00;;;;;;5011295;28;20454;-64
2021/04/08 11:42:23;;;;;;;6.60;6.03;;;9.90;55.90;;;;;;5011758;28;20424;-64
2021/04/08 11:44:50;;;;;;;7.00;6.20;;;10.00;54.20;;;;;;5011633;28;20821;-64
2021/04/08 11:47:22;;;;;;;7.30;6.70;;;9.50;53.20;;;;;;5011676;28;20454;-64
2021/04/08 11:49:51;;;;;;;7.30;6.70;;;9.30;54.50;;;;;;5011341;28;20514;-64
2021/04/08 11:52:20;;;;;;;8.63;6.20;;;9.90;59.60;;;;;;5011496;28;20912;-64
2021/04/08 11:55:04;;;;;;;8.30;7.70;;;11.10;55.10;;;;;;5012018;28;20485;-64
2021/04/08 11:57:31;;;;;;;8.77;8.07;;;11.70;54.70;;;;;;5011735;28;20474;-64
2021/04/08 12:00:08;;;;;;;8.13;7.47;;;12.20;52.20;;;;;;5013085;28;20456;-63
2021/04/08 12:02:36;;;;;;;8.20;7.50;;;12.60;53.70;;;;;;5015139;28;20404;-64
2021/04/08 12:05:06;;;;;;;8.23;7.40;;;13.00;51.00;;;;;;5015110;28;20976;-64
2021/04/08 12:07:41;;;;;;;10.83;7.20;;;13.00;51.10;;;;;;5014772;28;20545;-64
2021/04/08 12:10:25;;;;;;;8.60;7.33;;;11.80;49.10;;;;;;5014616;28;20446;-64
2021/04/08 12:13:10;;;;;;;8.20;7.60;;;11.00;50.80;;;;;;5014836;28;20404;-65
2021/04/08 12:15:36;;;;;;;9.77;9.07;;;11.60;53.80;;;;;;5014878;28;20411;-65
2021/04/08 12:18:11;;;;;;;8.50;7.40;;;12.30;55.10;;;;;;5014574;28;20404;-67
2021/04/08 12:20:37;;;;;;;7.40;6.80;;;11.90;49.20;;;;;;5014825;28;20169;-65
2021/04/08 12:23:25;;;;;;;8.70;8.00;;;11.70;51.30;;;;;;5014602;28;20470;-65
2021/04/08 12:25:53;;;;;;;9.00;8.30;;;12.20;51.00;;;;;;5014739;28;20177;-66
2021/04/08 12:28:21;;;;;;;7.70;7.20;;;12.30;58.70;;;;;;5014074;28;20421;-67
2021/04/08 12:30:56;;;;;;;8.50;7.70;;;12.30;49.70;;;;;;5014581;28;20440;-66
2021/04/08 12:33:55;;;;;;;8.63;7.70;;;12.60;51.60;;;;;;5014442;28;20457;-66
2021/04/08 12:36:20;;;;;;;8.70;7.50;;;11.80;48.20;;;;;;5013214;28;20475;-65
2021/04/08 12:38:46;;;;;;;9.33;8.53;;;11.40;50.00;;;;;;5013856;28;20786;-66
2021/04/08 12:41:12;;;;;;;8.13;7.50;;;11.10;49.70;;;;;;5014265;28;20178;-65
2021/04/08 12:43:38;;;;;;;7.60;7.10;;;10.90;50.90;;;;;;5014561;28;20177;-66
2021/04/08 12:46:03;;;;;;;7.77;7.17;;;10.70;53.10;;;;;;5014432;28;20189;-66
2021/04/08 12:48:30;;;;;;;7.50;7.00;;;11.30;53.20;;;;;;5013769;28;20951;-66
2021/04/08 12:50:57;;;;;;;7.97;7.10;;;11.30;51.80;;;;;;5014179;28;20170;-71
2021/04/08 12:53:24;;;;;;;8.50;7.80;;;11.30;52.10;;;;;;5013940;28;20952;-68
2021/04/08 12:55:51;;;;;;;8.53;7.83;;;11.70;54.70;;;;;;5014129;28;20400;-68
2021/04/08 12:58:17;;;;;;;7.77;7.00;;;12.30;68.20;;;;;;5013622;28;20423;-68
2021/04/08 13:00:43;;;;;;;9.13;8.23;;;12.30;54.10;;;;;;5014016;28;20901;-67
2021/04/08 13:03:10;;;;;;;8.10;7.43;;;11.90;51.30;;;;;;5013980;28;20400;-65